createdAt,value
2019-05-07T00:01:23.423Z,99.90
2019-05-07T00:03:52.971Z,99.90
2019-05-07T00:06:23.125Z,99.90
2019-05-07T00:08:52.383Z,99.90
2019-05-07T00:11:22.340Z,99.90
2019-05-07T00:13:52.268Z,99.90
2019-05-07T00:16:22.446Z,99.90
2019-05-07T00:18:52.565Z,99.90
2019-05-07T00:21:23.332Z,99.90
2019-05-07T00:23:52.799Z,99.90
2019-05-07T00:26:22.590Z,99.90
2019-05-07T00:28:52.679Z,99.90
2019-05-07T00:31:23.244Z,99.90
2019-05-07T00:33:52.709Z,99.90
2019-05-07T00:36:32.341Z,99.90
2019-05-07T00:39:18.359Z,99.90
2019-05-07T00:41:53.857Z,99.90
2019-05-07T00:44:23.179Z,99.90
2019-05-07T00:46:52.618Z,99.90
2019-05-07T00:49:23.483Z,99.90
2019-05-07T00:51:52.510Z,99.90
2019-05-07T00:54:23.020Z,99.90
2019-05-07T00:56:52.267Z,99.90
2019-05-07T00:59:22.604Z,99.90
2019-05-07T01:01:52.832Z,99.90
2019-05-07T01:04:22.936Z,99.90
2019-05-07T01:06:53.174Z,99.90
2019-05-07T01:09:23.013Z,99.90
2019-05-07T01:11:52.505Z,99.90
2019-05-07T01:14:22.898Z,99.90
2019-05-07T01:16:52.902Z,99.90
2019-05-07T01:19:22.188Z,99.90
2019-05-07T01:21:52.492Z,99.90
2019-05-07T01:24:23.347Z,99.90
2019-05-07T01:26:53.066Z,99.90
2019-05-07T01:29:22.697Z,99.90
2019-05-07T01:32:03.849Z,99.90
2019-05-07T01:34:42.930Z,99.90
2019-05-07T01:37:12.466Z,99.90
2019-05-07T01:39:42.165Z,99.90
2019-05-07T01:42:12.769Z,99.90
2019-05-07T01:44:42.119Z,99.90
2019-05-07T01:47:13.090Z,99.90
2019-05-07T01:49:42.340Z,99.90
2019-05-07T01:52:13.345Z,99.90
2019-05-07T01:54:42.682Z,99.90
2019-05-07T01:57:12.311Z,99.90
2019-05-07T01:59:42.768Z,99.90
2019-05-07T02:02:18.893Z,99.90
2019-05-07T02:04:57.641Z,99.90
2019-05-07T02:07:52.139Z,99.90
2019-05-07T02:10:38.302Z,99.90
2019-05-07T02:13:07.333Z,99.90
2019-05-07T02:15:36.395Z,99.90
2019-05-07T02:18:05.524Z,99.90
2019-05-07T02:20:34.653Z,99.90
2019-05-07T02:23:03.705Z,99.90
2019-05-07T02:25:32.994Z,99.90
2019-05-07T02:28:02.309Z,99.90
2019-05-07T02:30:34.536Z,99.90
2019-05-07T02:33:03.770Z,99.90
2019-05-07T02:35:33.463Z,99.90
2019-05-07T02:38:17.203Z,99.90
2019-05-07T02:40:53.371Z,99.90
2019-05-07T02:43:22.819Z,99.90
2019-05-07T02:46:17.305Z,99.90
2019-05-07T02:48:34.118Z,99.90
2019-05-07T02:51:24.301Z,99.90
2019-05-07T02:54:15.437Z,99.90
2019-05-07T02:56:44.576Z,99.90
2019-05-07T02:59:13.903Z,99.90
2019-05-07T03:01:43.409Z,99.90
2019-05-07T03:04:13.020Z,99.90
2019-05-07T03:06:44.270Z,99.90
2019-05-07T03:09:14.462Z,99.90
2019-05-07T03:11:43.855Z,99.90
2019-05-07T03:14:14.018Z,99.90
2019-05-07T03:16:47.882Z,99.90
2019-05-07T03:19:14.237Z,99.90
2019-05-07T03:21:55.747Z,99.90
2019-05-07T03:24:43.666Z,99.90
2019-05-07T03:27:14.290Z,99.90
2019-05-07T03:29:47.335Z,99.90
2019-05-07T03:32:38.137Z,99.90
2019-05-07T03:35:46.742Z,99.90
2019-05-07T03:38:13.299Z,99.90
2019-05-07T03:40:44.812Z,99.90
2019-05-07T03:43:14.081Z,99.90
2019-05-07T03:45:58.820Z,99.90
2019-05-07T03:48:29.000Z,99.90
2019-05-07T03:50:58.025Z,99.90
2019-05-07T03:53:27.086Z,99.90
2019-05-07T03:55:56.226Z,99.90
2019-05-07T03:58:25.291Z,99.90
2019-05-07T04:00:54.389Z,99.90
2019-05-07T04:03:24.777Z,99.90
2019-05-07T04:05:54.054Z,99.90
2019-05-07T04:08:23.897Z,99.90
2019-05-07T04:10:53.947Z,99.90
2019-05-07T04:13:24.197Z,99.90
2019-05-07T04:15:53.725Z,99.90
2019-05-07T04:18:23.746Z,99.90
2019-05-07T04:20:54.102Z,99.90
2019-05-07T04:23:23.775Z,99.90
2019-05-07T04:26:04.259Z,99.90
2019-05-07T04:28:53.965Z,99.90
2019-05-07T04:31:24.260Z,99.90
2019-05-07T04:33:54.055Z,99.90
2019-05-07T04:36:34.125Z,99.90
2019-05-07T04:39:03.178Z,99.90
2019-05-07T04:41:33.049Z,99.90
2019-05-07T04:44:03.563Z,99.90
2019-05-07T04:46:33.610Z,99.90
2019-05-07T04:49:03.705Z,99.90
2019-05-07T04:51:47.914Z,99.90
2019-05-07T04:54:16.952Z,99.90
2019-05-07T04:56:46.043Z,99.90
2019-05-07T04:59:15.090Z,99.90
2019-05-07T05:01:53.074Z,99.90
2019-05-07T05:04:29.847Z,99.90
2019-05-07T05:06:52.880Z,99.90
2019-05-07T05:09:23.277Z,99.90
2019-05-07T05:11:53.147Z,99.90
2019-05-07T05:14:22.896Z,99.90
2019-05-07T05:16:52.559Z,99.90
2019-05-07T05:19:23.025Z,99.90
2019-05-07T05:21:59.387Z,99.90
2019-05-07T05:24:42.383Z,99.90
2019-05-07T05:27:12.187Z,99.90
2019-05-07T05:29:42.946Z,99.90
2019-05-07T05:32:12.107Z,99.90
2019-05-07T05:34:42.582Z,99.90
2019-05-07T05:37:11.986Z,99.90
2019-05-07T05:39:42.675Z,99.90
2019-05-07T05:42:22.628Z,99.90
2019-05-07T05:44:52.469Z,99.90
2019-05-07T05:47:22.207Z,99.90
2019-05-07T05:49:53.288Z,99.90
2019-05-07T05:52:29.546Z,99.90
2019-05-07T05:55:02.914Z,99.90
2019-05-07T05:57:59.861Z,99.90
2019-05-07T06:01:02.847Z,99.90
2019-05-07T06:03:43.625Z,99.90
2019-05-07T06:06:29.811Z,99.90
2019-05-07T06:09:14.319Z,99.90
2019-05-07T06:12:05.312Z,99.90
2019-05-07T06:14:37.961Z,99.90
2019-05-07T06:17:13.245Z,99.90
2019-05-07T06:19:58.613Z,99.90
2019-05-07T06:22:35.043Z,99.90
2019-05-07T06:25:14.806Z,99.90
2019-05-07T06:27:42.380Z,99.90
2019-05-07T06:30:12.081Z,99.90
2019-05-07T06:32:43.002Z,99.90
2019-05-07T06:35:12.509Z,99.90
2019-05-07T06:37:42.898Z,99.90
2019-05-07T06:40:32.168Z,99.90
2019-05-07T06:43:08.373Z,99.90
2019-05-07T06:45:51.997Z,99.90
2019-05-07T06:48:37.187Z,99.90
2019-05-07T06:50:58.345Z,99.90
2019-05-07T06:53:28.259Z,99.90
2019-05-07T06:55:58.178Z,99.90
2019-05-07T06:58:32.719Z,99.90
2019-05-07T07:01:23.869Z,99.90
2019-05-07T07:04:22.523Z,99.90
2019-05-07T07:07:26.612Z,99.90
2019-05-07T07:10:18.590Z,99.90
2019-05-07T07:12:47.702Z,99.90
2019-05-07T07:15:16.761Z,99.90
2019-05-07T07:17:45.820Z,99.90
2019-05-07T07:20:15.081Z,99.90
2019-05-07T07:22:44.118Z,99.90
2019-05-07T07:25:13.153Z,99.90
2019-05-07T07:27:42.967Z,99.90
2019-05-07T07:30:49.473Z,99.90
2019-05-07T07:33:19.185Z,99.90
2019-05-07T07:35:48.301Z,99.90
2019-05-07T07:38:32.969Z,99.90
2019-05-07T07:41:07.875Z,99.90
2019-05-07T07:43:36.929Z,99.90
2019-05-07T07:46:06.086Z,99.90
2019-05-07T07:48:35.105Z,99.90
2019-05-07T07:51:04.161Z,99.90
2019-05-07T07:53:35.497Z,99.90
2019-05-07T07:56:23.063Z,99.90
2019-05-07T07:58:59.175Z,99.90
2019-05-07T08:01:37.441Z,99.90
2019-05-07T08:04:06.507Z,99.90
2019-05-07T08:06:37.269Z,99.90
2019-05-07T08:09:07.432Z,99.90
2019-05-07T08:11:36.497Z,96.90
2019-05-07T08:14:05.923Z,90.70
2019-05-07T08:16:35.102Z,94.40
2019-05-07T08:19:18.112Z,95.20
2019-05-07T08:21:34.989Z,93.40
2019-05-07T08:24:04.526Z,93.60
2019-05-07T08:26:33.561Z,89.00
2019-05-07T08:29:02.991Z,88.50
2019-05-07T08:31:43.153Z,87.40
2019-05-07T08:34:28.726Z,82.20
2019-05-07T08:36:57.772Z,78.70
2019-05-07T08:39:26.824Z,77.80
2019-05-07T08:41:55.941Z,90.20
2019-05-07T08:44:29.118Z,82.30
2019-05-07T08:47:23.253Z,83.70
2019-05-07T08:49:52.472Z,81.70
2019-05-07T08:52:22.355Z,77.40
2019-05-07T08:54:52.323Z,83.50
2019-05-07T08:57:22.730Z,74.80
2019-05-07T09:00:00.463Z,81.40
2019-05-07T09:02:22.778Z,78.00
2019-05-07T09:04:52.242Z,72.80
2019-05-07T09:07:21.985Z,71.60
2019-05-07T09:09:52.323Z,74.00
2019-05-07T09:12:23.003Z,69.70
2019-05-07T09:14:52.995Z,70.60
2019-05-07T09:17:23.020Z,67.60
2019-05-07T09:19:54.823Z,67.00
2019-05-07T09:22:23.221Z,63.50
2019-05-07T09:24:52.767Z,61.80
2019-05-07T09:27:37.788Z,63.30
2019-05-07T09:30:22.071Z,64.20
2019-05-07T09:33:13.034Z,64.20
2019-05-07T09:35:47.778Z,65.70
2019-05-07T09:38:16.885Z,60.90
2019-05-07T09:40:45.927Z,60.30
2019-05-07T09:43:14.980Z,57.90
2019-05-07T09:45:44.107Z,60.10
2019-05-07T09:48:13.165Z,58.60
2019-05-07T09:50:42.930Z,56.90
2019-05-07T09:53:12.774Z,56.80
2019-05-07T09:55:42.652Z,57.20
2019-05-07T09:58:12.510Z,57.20
2019-05-07T10:00:42.417Z,56.70
2019-05-07T10:03:12.614Z,54.80
2019-05-07T10:05:42.702Z,53.80
2019-05-07T10:08:12.879Z,58.50
2019-05-07T10:10:42.796Z,58.70
2019-05-07T10:13:33.916Z,57.30
2019-05-07T10:16:04.321Z,56.10
2019-05-07T10:18:33.915Z,55.30
2019-05-07T10:21:02.938Z,55.50
2019-05-07T10:23:32.189Z,60.00
2019-05-07T10:26:02.131Z,57.70
2019-05-07T10:28:32.029Z,53.70
2019-05-07T10:31:01.295Z,53.70
2019-05-07T10:33:31.912Z,54.70
2019-05-07T10:36:02.121Z,54.10
2019-05-07T10:38:31.292Z,52.00
2019-05-07T10:41:02.675Z,53.30
2019-05-07T10:43:32.741Z,55.00
2019-05-07T10:46:21.193Z,55.00
2019-05-07T10:48:58.059Z,59.00
2019-05-07T10:51:27.141Z,55.40
2019-05-07T10:53:56.177Z,51.00
2019-05-07T10:56:25.217Z,53.00
2019-05-07T10:58:54.273Z,52.00
2019-05-07T11:01:32.879Z,49.60
2019-05-07T11:04:02.337Z,50.40
2019-05-07T11:06:32.373Z,50.10
2019-05-07T11:09:01.530Z,51.70
2019-05-07T11:11:31.890Z,53.00
2019-05-07T11:14:01.937Z,49.80
2019-05-07T11:16:35.340Z,49.80
2019-05-07T11:19:04.597Z,50.30
2019-05-07T11:21:33.899Z,49.80
2019-05-07T11:24:03.362Z,48.60
2019-05-07T11:26:32.998Z,48.70
2019-05-07T11:29:02.479Z,47.80
2019-05-07T11:31:33.077Z,49.40
2019-05-07T11:34:02.920Z,48.00
2019-05-07T11:36:34.410Z,48.40
2019-05-07T11:39:03.910Z,50.70
2019-05-07T11:41:39.359Z,52.30
2019-05-07T11:44:19.400Z,48.10
2019-05-07T11:47:05.871Z,49.40
2019-05-07T11:49:52.605Z,48.80
2019-05-07T11:52:32.329Z,48.40
2019-05-07T11:55:03.020Z,47.70
2019-05-07T11:57:31.304Z,48.30
2019-05-07T12:00:02.606Z,49.00
2019-05-07T12:02:32.028Z,46.90
2019-05-07T12:05:02.027Z,47.30
2019-05-07T12:07:32.746Z,50.00
2019-05-07T12:10:04.769Z,48.30
2019-05-07T12:12:32.722Z,47.80
2019-05-07T12:15:02.421Z,48.50
2019-05-07T12:17:31.752Z,52.20
2019-05-07T12:20:02.371Z,48.50
2019-05-07T12:22:46.854Z,46.10
2019-05-07T12:25:17.246Z,50.40
2019-05-07T12:27:46.525Z,47.10
2019-05-07T12:30:22.139Z,47.80
2019-05-07T12:33:03.216Z,46.20
2019-05-07T12:35:32.465Z,47.30
2019-05-07T12:38:02.062Z,46.30
2019-05-07T12:40:32.545Z,45.90
2019-05-07T12:43:02.093Z,45.20
2019-05-07T12:45:31.165Z,44.50
2019-05-07T12:48:02.246Z,44.80
2019-05-07T12:50:32.317Z,45.50
2019-05-07T12:53:07.571Z,47.00
2019-05-07T12:55:43.670Z,46.40
2019-05-07T12:58:12.740Z,45.50
2019-05-07T13:01:05.291Z,44.20
2019-05-07T13:03:39.484Z,43.60
2019-05-07T13:06:08.534Z,43.80
2019-05-07T13:08:37.610Z,45.70
2019-05-07T13:11:06.654Z,45.40
2019-05-07T13:13:35.692Z,48.50
2019-05-07T13:16:04.903Z,43.80
2019-05-07T13:18:33.940Z,43.90
2019-05-07T13:21:03.011Z,44.00
2019-05-07T13:23:32.072Z,44.40
2019-05-07T13:26:02.546Z,43.50
2019-05-07T13:28:31.843Z,44.70
2019-05-07T13:31:02.358Z,45.50
2019-05-07T13:33:34.655Z,43.30
2019-05-07T13:36:04.209Z,45.30
2019-05-07T13:38:43.048Z,46.40
2019-05-07T13:41:24.743Z,46.40
2019-05-07T13:44:17.041Z,45.50
2019-05-07T13:46:46.990Z,46.10
2019-05-07T13:49:16.634Z,48.30
2019-05-07T13:51:45.774Z,48.30
2019-05-07T13:54:14.820Z,48.20
2019-05-07T13:56:43.896Z,52.10
2019-05-07T13:59:13.274Z,48.50
2019-05-07T14:02:13.842Z,47.90
2019-05-07T14:04:42.036Z,48.90
2019-05-07T14:07:12.666Z,48.00
2019-05-07T14:09:42.098Z,48.20
2019-05-07T14:12:12.323Z,46.80
2019-05-07T14:14:42.617Z,47.70
2019-05-07T14:17:12.712Z,48.20
2019-05-07T14:19:42.320Z,47.20
2019-05-07T14:22:18.028Z,49.10
2019-05-07T14:24:42.324Z,46.60
2019-05-07T14:27:11.411Z,44.60
2019-05-07T14:29:42.311Z,42.50
2019-05-07T14:32:18.769Z,48.30
2019-05-07T14:35:05.452Z,43.30
2019-05-07T14:37:47.177Z,45.20
2019-05-07T14:40:16.494Z,45.70
2019-05-07T14:42:52.415Z,41.70
2019-05-07T14:45:23.498Z,41.10
2019-05-07T14:47:52.278Z,45.60
2019-05-07T14:50:22.606Z,42.60
2019-05-07T14:52:52.333Z,42.40
2019-05-07T14:55:22.639Z,43.00
2019-05-07T14:57:52.442Z,41.20
2019-05-07T15:00:22.598Z,45.40
2019-05-07T15:02:52.530Z,45.20
2019-05-07T15:05:22.339Z,46.40
2019-05-07T15:07:51.793Z,44.80
2019-05-07T15:10:22.187Z,44.50
2019-05-07T15:12:52.198Z,46.20
2019-05-07T15:15:22.017Z,46.30
2019-05-07T15:18:16.396Z,45.40
2019-05-07T15:20:45.555Z,46.80
2019-05-07T15:23:19.173Z,46.60
2019-05-07T15:25:48.509Z,49.00
2019-05-07T15:28:17.645Z,47.50
2019-05-07T15:30:55.833Z,46.70
2019-05-07T15:33:24.985Z,45.90
2019-05-07T15:35:54.050Z,48.40
2019-05-07T15:38:23.099Z,47.00
2019-05-07T15:40:52.156Z,48.50
2019-05-07T15:43:21.178Z,47.50
2019-05-07T15:45:52.318Z,46.80
2019-05-07T15:48:21.979Z,47.70
2019-05-07T15:50:51.980Z,47.30
2019-05-07T15:53:38.393Z,49.20
2019-05-07T15:56:07.453Z,47.60
2019-05-07T15:58:36.493Z,52.90
2019-05-07T16:01:05.632Z,50.80
2019-05-07T16:03:42.671Z,50.40
2019-05-07T16:06:12.643Z,51.70
2019-05-07T16:08:49.247Z,54.70
2019-05-07T16:11:17.613Z,56.10
2019-05-07T16:13:52.504Z,50.40
2019-05-07T16:16:23.371Z,50.80
2019-05-07T16:19:23.540Z,52.00
2019-05-07T16:21:52.611Z,53.80
2019-05-07T16:24:22.542Z,57.00
2019-05-07T16:26:52.319Z,54.60
2019-05-07T16:29:22.513Z,54.00
2019-05-07T16:31:52.125Z,53.60
2019-05-07T16:34:22.010Z,58.90
2019-05-07T16:36:52.053Z,54.60
2019-05-07T16:39:22.177Z,52.30
2019-05-07T16:41:52.599Z,52.50
2019-05-07T16:44:22.574Z,54.90
2019-05-07T16:46:53.511Z,55.30
2019-05-07T16:49:22.736Z,56.70
2019-05-07T16:51:52.492Z,53.20
2019-05-07T16:54:21.693Z,54.10
2019-05-07T16:57:08.209Z,56.10
2019-05-07T16:59:37.317Z,57.40
2019-05-07T17:02:14.621Z,58.90
2019-05-07T17:05:03.085Z,58.60
2019-05-07T17:07:32.281Z,62.70
2019-05-07T17:10:02.680Z,59.40
2019-05-07T17:12:32.443Z,58.70
2019-05-07T17:15:02.992Z,58.60
2019-05-07T17:17:32.278Z,60.80
2019-05-07T17:20:02.829Z,60.70
2019-05-07T17:22:32.377Z,64.10
2019-05-07T17:25:04.029Z,62.20
2019-05-07T17:27:33.072Z,61.50
2019-05-07T17:30:02.964Z,62.30
2019-05-07T17:32:32.232Z,64.70
2019-05-07T17:35:02.623Z,63.40
2019-05-07T17:37:31.721Z,62.30
2019-05-07T17:40:02.982Z,64.20
2019-05-07T17:42:32.883Z,62.00
2019-05-07T17:45:02.944Z,60.00
2019-05-07T17:47:32.618Z,59.50
2019-05-07T17:50:02.376Z,61.70
2019-05-07T17:52:32.402Z,61.60
2019-05-07T17:55:02.197Z,63.90
2019-05-07T17:57:33.330Z,64.60
2019-05-07T18:00:02.373Z,66.00
2019-05-07T18:02:39.426Z,64.10
2019-05-07T18:05:08.469Z,63.50
2019-05-07T18:07:37.509Z,64.60
2019-05-07T18:10:06.776Z,66.30
2019-05-07T18:12:35.826Z,67.60
2019-05-07T18:15:05.382Z,68.40
2019-05-07T18:18:00.290Z,68.50
2019-05-07T18:20:29.121Z,67.80
2019-05-07T18:22:58.167Z,68.30
2019-05-07T18:25:27.209Z,70.90
2019-05-07T18:27:56.249Z,74.50
2019-05-07T18:30:25.483Z,76.60
2019-05-07T18:33:02.340Z,79.50
2019-05-07T18:35:32.156Z,81.40
2019-05-07T18:38:02.599Z,86.00
2019-05-07T18:40:31.872Z,87.10
2019-05-07T18:43:02.963Z,90.30
2019-05-07T18:45:31.633Z,94.40
2019-05-07T18:48:02.405Z,98.50
2019-05-07T18:50:32.565Z,99.90
2019-05-07T18:53:02.845Z,99.90
2019-05-07T18:55:33.524Z,99.90
2019-05-07T18:58:02.849Z,99.90
2019-05-07T19:00:35.387Z,99.90
2019-05-07T19:03:04.455Z,99.90
2019-05-07T19:05:33.564Z,99.90
2019-05-07T19:08:08.027Z,99.90
2019-05-07T19:10:33.493Z,99.90
2019-05-07T19:13:02.734Z,99.90
2019-05-07T19:15:32.851Z,99.90
2019-05-07T19:18:02.700Z,99.90
2019-05-07T19:20:32.631Z,99.90
2019-05-07T19:23:02.673Z,99.90
2019-05-07T19:25:32.638Z,99.90
2019-05-07T19:28:02.091Z,99.90
2019-05-07T19:30:32.677Z,99.90
2019-05-07T19:33:01.806Z,99.90
2019-05-07T19:35:32.747Z,99.90
2019-05-07T19:38:02.877Z,99.90
2019-05-07T19:40:32.574Z,99.90
2019-05-07T19:43:02.999Z,99.90
2019-05-07T19:45:32.170Z,99.90
2019-05-07T19:48:02.867Z,99.90
2019-05-07T19:50:32.494Z,99.90
2019-05-07T19:53:02.970Z,99.90
2019-05-07T19:55:52.596Z,99.90
2019-05-07T19:58:22.950Z,99.90
2019-05-07T20:00:57.085Z,99.90
2019-05-07T20:03:23.638Z,99.90
2019-05-07T20:05:52.702Z,99.90
2019-05-07T20:08:21.790Z,99.90
2019-05-07T20:10:56.752Z,99.90
2019-05-07T20:13:27.305Z,99.90
2019-05-07T20:16:06.594Z,99.90
2019-05-07T20:18:35.669Z,99.90
2019-05-07T20:21:04.825Z,99.90
2019-05-07T20:23:33.873Z,99.90
2019-05-07T20:26:03.160Z,99.90
2019-05-07T20:28:32.747Z,99.90
2019-05-07T20:31:01.974Z,99.90
2019-05-07T20:33:32.724Z,99.90
2019-05-07T20:36:02.628Z,99.90
2019-05-07T20:38:32.170Z,99.90
2019-05-07T20:41:02.079Z,99.90
2019-05-07T20:43:32.612Z,99.90
2019-05-07T20:46:02.659Z,99.90
2019-05-07T20:48:32.454Z,99.90
2019-05-07T20:51:01.625Z,99.90
2019-05-07T20:53:48.500Z,99.90
2019-05-07T20:56:18.954Z,99.90
2019-05-07T20:58:48.008Z,99.90
2019-05-07T21:01:17.109Z,99.90
2019-05-07T21:03:46.157Z,99.90
2019-05-07T21:06:15.200Z,99.90
2019-05-07T21:08:44.250Z,99.90
2019-05-07T21:11:13.292Z,99.90
2019-05-07T21:13:44.604Z,99.90
2019-05-07T21:16:13.097Z,99.90
2019-05-07T21:18:42.432Z,99.90
2019-05-07T21:21:12.540Z,99.90
2019-05-07T21:23:43.423Z,99.90
2019-05-07T21:26:13.190Z,99.90
2019-05-07T21:28:43.183Z,99.90
2019-05-07T21:31:12.476Z,99.90
2019-05-07T21:33:42.921Z,99.90
2019-05-07T21:36:12.341Z,99.90
2019-05-07T21:38:42.579Z,99.90
2019-05-07T21:41:12.866Z,99.90
2019-05-07T21:43:45.733Z,99.90
2019-05-07T21:46:13.042Z,99.90
2019-05-07T21:48:42.127Z,99.90
2019-05-07T21:51:12.186Z,99.90
2019-05-07T21:54:05.487Z,99.90
2019-05-07T21:56:56.667Z,99.90
2019-05-07T21:59:26.583Z,99.90
2019-05-07T22:01:59.252Z,99.90
2019-05-07T22:04:28.381Z,99.90
2019-05-07T22:06:57.417Z,99.90
2019-05-07T22:09:26.569Z,99.90
2019-05-07T22:11:55.617Z,99.90
2019-05-07T22:14:24.726Z,99.90
2019-05-07T22:16:54.602Z,99.90
2019-05-07T22:19:23.765Z,99.90
2019-05-07T22:21:52.736Z,99.90
2019-05-07T22:24:22.463Z,99.90
2019-05-07T22:26:51.589Z,99.90
2019-05-07T22:29:22.594Z,99.90
2019-05-07T22:32:13.213Z,99.90
2019-05-07T22:34:48.365Z,99.90
2019-05-07T22:37:17.425Z,99.90
2019-05-07T22:39:46.474Z,99.90
2019-05-07T22:42:15.672Z,99.90
2019-05-07T22:44:44.645Z,99.90
2019-05-07T22:47:18.949Z,99.90
2019-05-07T22:49:49.254Z,99.90
2019-05-07T22:52:18.888Z,99.90
2019-05-07T22:54:48.082Z,99.90
2019-05-07T22:57:32.755Z,99.90
2019-05-07T23:00:04.534Z,99.90
2019-05-07T23:02:32.562Z,99.90
2019-05-07T23:05:02.844Z,99.90
2019-05-07T23:07:32.903Z,99.90
2019-05-07T23:10:02.791Z,99.90
2019-05-07T23:12:32.671Z,99.90
2019-05-07T23:15:02.741Z,99.90
2019-05-07T23:17:32.617Z,99.90
2019-05-07T23:20:01.788Z,99.90
2019-05-07T23:22:32.399Z,99.90
2019-05-07T23:25:01.569Z,99.90
2019-05-07T23:27:32.581Z,99.90
2019-05-07T23:30:02.606Z,99.90
2019-05-07T23:32:32.941Z,99.90
2019-05-07T23:35:02.254Z,99.90
2019-05-07T23:37:33.158Z,99.90
2019-05-07T23:40:12.200Z,99.90
2019-05-07T23:42:42.632Z,99.90
2019-05-07T23:45:12.562Z,99.90
2019-05-07T23:47:44.482Z,99.90
2019-05-07T23:50:12.616Z,99.90
2019-05-07T23:52:43.952Z,99.90
2019-05-07T23:55:12.478Z,99.90
2019-05-07T23:57:43.077Z,99.90
